createdAt,value
2023-03-21T00:01:14.874Z,3
2023-03-21T00:05:28.078Z,0
2023-03-21T00:07:14.159Z,3
2023-03-21T00:10:50.392Z,3
2023-03-21T00:11:14.518Z,3
2023-03-21T00:16:47.146Z,1
2023-03-21T00:17:14.915Z,1
2023-03-21T00:18:14.864Z,1
2023-03-21T00:19:15.172Z,1
2023-03-21T00:20:14.236Z,1
2023-03-21T00:22:20.976Z,3
2023-03-21T00:23:14.779Z,3
2023-03-21T00:28:16.429Z,1
2023-03-21T00:33:33.090Z,4
2023-03-21T00:34:37.087Z,1
2023-03-21T00:37:14.981Z,3
2023-03-21T00:40:51.195Z,3
2023-03-21T00:41:51.821Z,3
2023-03-21T00:52:48.997Z,1
2023-03-21T00:53:13.934Z,1
2023-03-21T00:54:14.448Z,1
2023-03-21T00:55:14.528Z,1
2023-03-21T00:56:14.733Z,1
2023-03-21T00:57:14.355Z,5
2023-03-21T00:59:14.779Z,5
2023-03-21T01:01:14.515Z,5
2023-03-21T01:02:14.988Z,4
2023-03-21T01:03:35.444Z,4
2023-03-21T01:04:14.491Z,4
2023-03-21T01:06:14.614Z,4
2023-03-21T01:07:14.541Z,5
2023-03-21T01:08:57.873Z,5
2023-03-21T01:10:14.485Z,5
2023-03-21T01:11:14.400Z,5
2023-03-21T01:12:14.739Z,4
2023-03-21T01:14:34.300Z,4
2023-03-21T01:15:14.344Z,4
2023-03-21T01:18:14.242Z,5
2023-03-21T01:19:55.688Z,5
2023-03-21T01:20:14.809Z,5
2023-03-21T01:21:14.403Z,5
2023-03-21T01:22:14.105Z,6
2023-03-21T01:23:14.530Z,6
2023-03-21T01:25:33.813Z,6
2023-03-21T01:26:14.954Z,6
2023-03-21T01:27:14.182Z,5
2023-03-21T01:28:14.574Z,5
2023-03-21T01:29:14.879Z,5
2023-03-21T01:30:42.290Z,5
2023-03-21T01:31:14.417Z,5
2023-03-21T01:32:14.647Z,6
2023-03-21T01:33:14.963Z,6
2023-03-21T01:34:14.268Z,6
2023-03-21T01:35:14.650Z,6
2023-03-21T01:36:30.963Z,6
2023-03-21T01:37:14.533Z,7
2023-03-21T01:38:14.328Z,7
2023-03-21T01:39:14.398Z,7
2023-03-21T01:40:14.880Z,7
2023-03-21T01:41:47.081Z,7
2023-03-21T01:42:14.252Z,6
2023-03-21T01:43:14.586Z,6
2023-03-21T01:44:14.905Z,6
2023-03-21T01:45:15.118Z,6
2023-03-21T01:46:14.643Z,6
2023-03-21T01:47:29.700Z,5
2023-03-21T01:48:14.792Z,5
2023-03-21T01:49:14.839Z,5
2023-03-21T01:50:13.869Z,5
2023-03-21T01:51:14.261Z,5
2023-03-21T01:52:41.661Z,5
2023-03-21T01:53:14.698Z,5
2023-03-21T01:54:14.904Z,5
2023-03-21T01:55:14.242Z,5
2023-03-21T01:56:14.409Z,5
2023-03-21T01:57:14.689Z,6
2023-03-21T01:58:15.904Z,6
2023-03-21T01:59:14.956Z,6
2023-03-21T02:00:14.104Z,6
2023-03-21T02:01:14.551Z,6
2023-03-21T02:02:14.473Z,6
2023-03-21T02:03:41.060Z,6
2023-03-21T02:04:14.589Z,6
2023-03-21T02:05:14.394Z,6
2023-03-21T02:06:14.796Z,6
2023-03-21T02:07:14.565Z,5
2023-03-21T02:08:14.036Z,5
2023-03-21T02:09:14.475Z,5
2023-03-21T02:10:14.636Z,5
2023-03-21T02:11:14.781Z,5
2023-03-21T02:12:14.897Z,3
2023-03-21T02:13:14.228Z,3
2023-03-21T02:14:31.324Z,3
2023-03-21T02:15:14.520Z,3
2023-03-21T02:16:14.936Z,3
2023-03-21T02:17:14.104Z,4
2023-03-21T02:18:14.417Z,4
2023-03-21T02:19:22.893Z,4
2023-03-21T02:20:14.545Z,4
2023-03-21T02:21:14.124Z,4
2023-03-21T02:22:14.538Z,1
2023-03-21T02:23:14.969Z,1
2023-03-21T02:24:14.236Z,1
2023-03-21T02:25:28.246Z,1
2023-03-21T02:26:14.193Z,1
2023-03-21T02:27:14.444Z,1
2023-03-21T02:28:14.640Z,1
2023-03-21T02:29:15.410Z,1
2023-03-21T02:30:51.892Z,1
2023-03-21T02:31:14.336Z,1
2023-03-21T02:32:42.485Z,1
2023-03-21T02:33:14.418Z,1
2023-03-21T02:34:14.663Z,1
2023-03-21T02:35:14.690Z,1
2023-03-21T02:36:22.577Z,1
2023-03-21T02:37:14.325Z,0
2023-03-21T02:38:14.600Z,0
2023-03-21T02:39:14.176Z,0
2023-03-21T02:40:14.347Z,0
2023-03-21T02:41:38.207Z,0
2023-03-21T02:42:14.615Z,0
2023-03-21T02:43:29.895Z,0
2023-03-21T02:44:14.255Z,0
2023-03-21T02:45:14.369Z,0
2023-03-21T02:46:15.114Z,0
2023-03-21T02:47:15.484Z,0
2023-03-21T02:48:50.793Z,0
2023-03-21T02:49:14.306Z,0
2023-03-21T02:50:14.266Z,0
2023-03-21T02:51:14.865Z,0
2023-03-21T02:52:43.706Z,3
2023-03-21T02:53:14.759Z,3
2023-03-21T02:54:53.313Z,3
2023-03-21T02:55:14.637Z,3
2023-03-21T02:56:14.529Z,3
2023-03-21T02:57:14.695Z,3
2023-03-21T02:58:21.291Z,3
2023-03-21T02:59:14.279Z,3
2023-03-21T03:00:24.677Z,3
2023-03-21T03:01:14.655Z,3
2023-03-21T03:02:14.613Z,3
2023-03-21T03:03:38.697Z,3
2023-03-21T03:04:14.735Z,3
2023-03-21T03:05:28.345Z,3
2023-03-21T03:06:14.438Z,3
2023-03-21T03:07:14.692Z,1
2023-03-21T03:08:14.277Z,1
2023-03-21T03:09:14.345Z,1
2023-03-21T03:10:14.644Z,1
2023-03-21T03:11:13.766Z,1
2023-03-21T03:12:14.133Z,3
2023-03-21T03:13:14.368Z,3
2023-03-21T03:15:08.373Z,3
2023-03-21T03:16:14.383Z,3
2023-03-21T03:17:14.407Z,3
2023-03-21T03:18:14.532Z,3
2023-03-21T03:19:14.861Z,3
2023-03-21T03:20:24.054Z,3
2023-03-21T03:21:14.630Z,3
2023-03-21T03:22:14.533Z,1
2023-03-21T03:23:14.157Z,1
2023-03-21T03:24:14.493Z,1
2023-03-21T03:25:46.300Z,1
2023-03-21T03:26:14.434Z,1
2023-03-21T03:27:14.526Z,0
2023-03-21T03:28:14.688Z,0
2023-03-21T03:29:13.800Z,0
2023-03-21T03:30:14.353Z,0
2023-03-21T03:31:22.128Z,0
2023-03-21T03:32:15.248Z,0
2023-03-21T03:33:14.121Z,0
2023-03-21T03:34:14.348Z,0
2023-03-21T03:35:14.556Z,0
2023-03-21T03:36:37.633Z,0
2023-03-21T03:37:14.636Z,1
2023-03-21T03:38:14.854Z,1
2023-03-21T03:39:13.724Z,1
2023-03-21T03:40:14.366Z,1
2023-03-21T03:41:14.689Z,1
2023-03-21T03:42:34.931Z,1
2023-03-21T03:43:15.133Z,1
2023-03-21T03:44:14.472Z,1
2023-03-21T03:45:14.730Z,1
2023-03-21T03:46:14.698Z,1
2023-03-21T03:47:37.780Z,0
2023-03-21T03:48:14.339Z,0
2023-03-21T03:49:14.278Z,0
2023-03-21T03:50:14.593Z,0
2023-03-21T03:51:14.974Z,0
2023-03-21T03:52:13.896Z,1
2023-03-21T03:53:26.024Z,1
2023-03-21T03:54:14.404Z,1
2023-03-21T03:55:14.817Z,1
2023-03-21T03:56:14.209Z,1
2023-03-21T03:57:14.571Z,1
2023-03-21T03:58:48.014Z,1
2023-03-21T03:59:14.028Z,1
2023-03-21T04:00:14.428Z,1
2023-03-21T04:01:14.637Z,1
2023-03-21T04:02:15.073Z,0
2023-03-21T04:03:14.833Z,0
2023-03-21T04:04:22.270Z,0
2023-03-21T04:05:15.048Z,0
2023-03-21T04:06:14.258Z,0
2023-03-21T04:07:14.415Z,1
2023-03-21T04:08:14.654Z,1
2023-03-21T04:09:47.392Z,1
2023-03-21T04:10:14.194Z,1
2023-03-21T04:11:14.454Z,1
2023-03-21T04:12:14.111Z,3
2023-03-21T04:13:14.230Z,3
2023-03-21T04:14:14.641Z,3
2023-03-21T04:15:19.428Z,3
2023-03-21T04:16:14.520Z,3
2023-03-21T04:17:14.415Z,5
2023-03-21T04:18:14.582Z,5
2023-03-21T04:19:15.048Z,5
2023-03-21T04:20:40.679Z,5
2023-03-21T04:21:14.729Z,5
2023-03-21T04:22:14.979Z,5
2023-03-21T04:23:14.075Z,5
2023-03-21T04:24:14.689Z,5
2023-03-21T04:25:17.052Z,5
2023-03-21T04:26:14.535Z,5
2023-03-21T04:27:14.384Z,5
2023-03-21T04:28:14.794Z,5
2023-03-21T04:29:14.967Z,5
2023-03-21T04:30:14.156Z,5
2023-03-21T04:31:31.864Z,5
2023-03-21T04:32:14.996Z,5
2023-03-21T04:33:14.111Z,5
2023-03-21T04:34:14.998Z,5
2023-03-21T04:35:14.863Z,5
2023-03-21T04:36:14.182Z,5
2023-03-21T04:37:14.278Z,6
2023-03-21T04:38:14.362Z,6
2023-03-21T04:39:14.966Z,6
2023-03-21T04:40:14.710Z,6
2023-03-21T04:41:14.578Z,6
2023-03-21T04:42:14.898Z,4
2023-03-21T04:43:13.883Z,4
2023-03-21T04:44:14.282Z,4
2023-03-21T04:45:14.944Z,4
2023-03-21T04:46:15.233Z,4
2023-03-21T04:47:14.017Z,4
2023-03-21T04:48:14.655Z,4
2023-03-21T04:49:14.768Z,4
2023-03-21T04:50:13.971Z,4
2023-03-21T04:51:14.967Z,4
2023-03-21T04:52:14.098Z,1
2023-03-21T04:53:14.481Z,1
2023-03-21T04:55:14.267Z,1
2023-03-21T04:56:14.402Z,1
2023-03-21T04:57:14.837Z,0
2023-03-21T04:58:14.004Z,0
2023-03-21T04:59:14.530Z,0
2023-03-21T05:00:14.684Z,0
2023-03-21T05:01:15.097Z,0
2023-03-21T05:02:14.267Z,4
2023-03-21T05:03:14.412Z,4
2023-03-21T05:04:14.954Z,4
2023-03-21T05:05:13.899Z,4
2023-03-21T05:06:14.483Z,4
2023-03-21T05:07:14.677Z,0
2023-03-21T05:08:14.878Z,0
2023-03-21T05:09:13.960Z,0
2023-03-21T05:10:14.158Z,0
2023-03-21T05:11:14.488Z,0
2023-03-21T05:12:14.791Z,0
2023-03-21T05:13:14.097Z,0
2023-03-21T05:14:14.604Z,0
2023-03-21T05:15:14.317Z,0
2023-03-21T05:16:14.361Z,0
2023-03-21T05:17:14.428Z,1
2023-03-21T05:18:13.980Z,1
2023-03-21T05:19:14.248Z,1
2023-03-21T05:20:14.640Z,1
2023-03-21T05:21:14.995Z,1
2023-03-21T05:22:13.898Z,3
2023-03-21T05:23:14.187Z,3
2023-03-21T05:24:14.515Z,3
2023-03-21T05:25:14.971Z,3
2023-03-21T05:26:14.109Z,3
2023-03-21T05:27:14.410Z,4
2023-03-21T05:28:13.461Z,4
2023-03-21T05:29:14.653Z,4
2023-03-21T05:30:13.955Z,4
2023-03-21T05:31:14.550Z,4
2023-03-21T05:32:14.585Z,3
2023-03-21T05:33:14.811Z,3
2023-03-21T05:34:14.952Z,3
2023-03-21T05:35:14.396Z,3
2023-03-21T05:36:14.694Z,3
2023-03-21T05:37:14.516Z,0
2023-03-21T05:38:14.130Z,0
2023-03-21T05:39:14.303Z,0
2023-03-21T05:40:14.060Z,0
2023-03-21T05:41:14.367Z,0
2023-03-21T05:42:14.748Z,0
2023-03-21T05:43:14.644Z,0
2023-03-21T05:44:14.256Z,0
2023-03-21T05:45:14.500Z,0
2023-03-21T05:46:14.294Z,0
2023-03-21T05:47:14.386Z,4
2023-03-21T05:48:15.042Z,4
2023-03-21T05:49:14.707Z,4
2023-03-21T05:50:14.081Z,4
2023-03-21T05:51:14.413Z,4
2023-03-21T05:52:14.556Z,3
2023-03-21T05:53:14.957Z,3
2023-03-21T05:54:14.184Z,3
2023-03-21T05:55:14.342Z,3
2023-03-21T05:56:14.674Z,3
2023-03-21T05:57:14.658Z,3
2023-03-21T05:58:13.958Z,3
2023-03-21T05:59:14.137Z,3
2023-03-21T06:00:14.536Z,3
2023-03-21T06:01:14.792Z,3
2023-03-21T06:02:14.120Z,5
2023-03-21T06:03:14.267Z,5
2023-03-21T06:04:15.062Z,5
2023-03-21T06:05:13.995Z,5
2023-03-21T06:06:13.950Z,5
2023-03-21T06:07:14.382Z,5
2023-03-21T06:08:14.473Z,5
2023-03-21T06:09:14.781Z,5
2023-03-21T06:10:14.716Z,5
2023-03-21T06:11:14.294Z,5
2023-03-21T06:12:14.318Z,5
2023-03-21T06:13:14.750Z,5
2023-03-21T06:14:14.884Z,5
2023-03-21T06:15:14.310Z,5
2023-03-21T06:16:14.618Z,5
2023-03-21T06:17:14.634Z,7
2023-03-21T06:18:14.184Z,7
2023-03-21T06:19:14.325Z,7
2023-03-21T06:20:14.420Z,7
2023-03-21T06:21:14.732Z,7
2023-03-21T06:22:14.964Z,6
2023-03-21T06:23:14.125Z,6
2023-03-21T06:24:14.666Z,6
2023-03-21T06:25:14.963Z,6
2023-03-21T06:26:14.691Z,6
2023-03-21T06:27:13.963Z,7
2023-03-21T06:28:14.152Z,7
2023-03-21T06:29:14.462Z,7
2023-03-21T06:30:14.431Z,7
2023-03-21T06:31:15.271Z,7
2023-03-21T06:32:14.057Z,6
2023-03-21T06:33:14.388Z,6
2023-03-21T06:34:14.681Z,6
2023-03-21T06:35:14.052Z,6
2023-03-21T06:36:14.112Z,6
2023-03-21T06:37:14.362Z,6
2023-03-21T06:38:14.611Z,6
2023-03-21T06:39:14.216Z,6
2023-03-21T06:40:14.489Z,6
2023-03-21T06:41:14.343Z,6
2023-03-21T06:42:14.670Z,6
2023-03-21T06:43:14.190Z,6
2023-03-21T06:44:14.363Z,6
2023-03-21T06:45:14.684Z,6
2023-03-21T06:46:15.039Z,6
2023-03-21T06:47:14.236Z,6
2023-03-21T06:48:17.734Z,6
2023-03-21T06:49:14.857Z,6
2023-03-21T06:50:14.104Z,6
2023-03-21T06:51:14.525Z,6
2023-03-21T06:52:14.254Z,6
2023-03-21T06:53:15.023Z,6
2023-03-21T06:54:14.191Z,6
2023-03-21T06:55:14.524Z,6
2023-03-21T06:56:14.553Z,6
2023-03-21T06:57:14.671Z,6
2023-03-21T06:58:13.870Z,6
2023-03-21T06:59:14.329Z,6
2023-03-21T07:00:14.689Z,6
2023-03-21T07:01:14.948Z,6
2023-03-21T07:02:14.439Z,4
2023-03-21T07:03:14.306Z,4
2023-03-21T07:04:14.441Z,4
2023-03-21T07:05:14.844Z,4
2023-03-21T07:06:14.163Z,4
2023-03-21T07:07:14.331Z,5
2023-03-21T07:08:14.354Z,5
2023-03-21T07:09:14.674Z,5
2023-03-21T07:10:14.854Z,5
2023-03-21T07:11:14.361Z,5
2023-03-21T07:12:14.350Z,6
2023-03-21T07:13:14.498Z,6
2023-03-21T07:14:14.786Z,6
2023-03-21T07:15:13.677Z,6
2023-03-21T07:16:14.502Z,6
2023-03-21T07:17:14.021Z,5
2023-03-21T07:18:14.821Z,5
2023-03-21T07:19:14.112Z,5
2023-03-21T07:20:14.371Z,5
2023-03-21T07:21:14.734Z,5
2023-03-21T07:22:15.049Z,3
2023-03-21T07:23:14.548Z,3
2023-03-21T07:24:14.664Z,3
2023-03-21T07:25:14.619Z,3
2023-03-21T07:26:14.541Z,3
2023-03-21T07:27:14.704Z,6
2023-03-21T07:28:15.020Z,6
2023-03-21T07:29:14.408Z,6
2023-03-21T07:30:14.699Z,6
2023-03-21T07:31:14.643Z,6
2023-03-21T07:32:14.651Z,4
2023-03-21T07:33:14.585Z,4
2023-03-21T07:34:13.975Z,4
2023-03-21T07:35:14.301Z,4
2023-03-21T07:36:14.629Z,4
2023-03-21T07:37:14.570Z,4
2023-03-21T07:38:14.320Z,4
2023-03-21T07:39:14.538Z,4
2023-03-21T07:40:15.014Z,4
2023-03-21T07:41:14.039Z,4
2023-03-21T07:42:14.420Z,3
2023-03-21T07:43:14.777Z,3
2023-03-21T07:44:13.973Z,3
2023-03-21T07:45:14.240Z,3
2023-03-21T07:46:15.254Z,3
2023-03-21T07:47:14.617Z,1
2023-03-21T07:48:14.435Z,1
2023-03-21T07:49:14.375Z,1
2023-03-21T07:50:14.872Z,1
2023-03-21T07:51:15.034Z,1
2023-03-21T07:52:14.203Z,1
2023-03-21T07:53:14.379Z,1
2023-03-21T07:54:14.721Z,1
2023-03-21T07:55:14.811Z,1
2023-03-21T07:56:14.061Z,1
2023-03-21T07:57:16.187Z,1
2023-03-21T07:58:14.259Z,1
2023-03-21T07:59:14.803Z,1
2023-03-21T08:00:14.270Z,1
2023-03-21T08:01:14.368Z,1
2023-03-21T08:02:14.889Z,1
2023-03-21T08:03:15.168Z,1
2023-03-21T08:04:14.174Z,1
2023-03-21T08:05:14.373Z,1
2023-03-21T08:06:14.596Z,1
2023-03-21T08:07:15.130Z,3
2023-03-21T08:08:14.226Z,3
2023-03-21T08:09:14.356Z,3
2023-03-21T08:10:14.334Z,3
2023-03-21T08:11:14.522Z,3
2023-03-21T08:12:14.790Z,3
2023-03-21T08:13:14.016Z,3
2023-03-21T08:14:14.117Z,3
2023-03-21T08:15:14.466Z,3
2023-03-21T08:16:14.968Z,3
2023-03-21T08:17:14.401Z,4
2023-03-21T08:18:14.637Z,4
2023-03-21T08:19:14.809Z,4
2023-03-21T08:20:14.892Z,4
2023-03-21T08:21:16.031Z,4
2023-03-21T08:22:14.280Z,7
2023-03-21T08:23:14.820Z,7
2023-03-21T08:24:15.142Z,7
2023-03-21T08:25:13.923Z,7
2023-03-21T08:26:14.723Z,7
2023-03-21T08:27:14.066Z,3
2023-03-21T08:28:14.524Z,3
2023-03-21T08:29:14.808Z,3
2023-03-21T08:30:14.756Z,3
2023-03-21T08:31:15.379Z,3
2023-03-21T08:32:14.984Z,3
2023-03-21T08:33:14.156Z,3
2023-03-21T08:34:14.164Z,3
2023-03-21T08:35:14.844Z,3
2023-03-21T08:36:14.835Z,3
2023-03-21T08:37:14.796Z,5
2023-03-21T08:38:14.132Z,5
2023-03-21T08:39:14.315Z,5
2023-03-21T08:40:14.643Z,5
2023-03-21T08:41:14.076Z,5
2023-03-21T08:42:14.412Z,3
2023-03-21T08:43:16.819Z,3
2023-03-21T08:44:14.885Z,3
2023-03-21T08:45:14.209Z,3
2023-03-21T08:46:14.519Z,3
2023-03-21T08:47:14.669Z,6
2023-03-21T08:48:15.385Z,6
2023-03-21T08:49:14.202Z,6
2023-03-21T08:50:14.490Z,6
2023-03-21T08:51:15.085Z,6
2023-03-21T08:52:13.879Z,3
2023-03-21T08:53:14.395Z,3
2023-03-21T08:54:14.916Z,3
2023-03-21T08:55:14.266Z,3
2023-03-21T08:56:14.413Z,3
2023-03-21T08:57:14.799Z,7
2023-03-21T08:58:15.098Z,7
2023-03-21T08:59:13.950Z,7
2023-03-21T09:00:14.829Z,7
2023-03-21T09:01:14.394Z,7
2023-03-21T09:02:15.284Z,6
2023-03-21T09:03:16.015Z,6
2023-03-21T09:04:14.787Z,6
2023-03-21T09:05:14.785Z,6
2023-03-21T09:06:14.978Z,6
2023-03-21T09:07:14.371Z,6
2023-03-21T09:08:14.528Z,6
2023-03-21T09:09:14.929Z,6
2023-03-21T09:10:29.608Z,6
2023-03-21T09:11:14.196Z,6
2023-03-21T09:12:14.137Z,5
2023-03-21T09:13:14.716Z,5
2023-03-21T09:14:14.672Z,5
2023-03-21T09:15:14.238Z,5
2023-03-21T09:16:14.958Z,5
2023-03-21T09:17:15.057Z,6
2023-03-21T09:18:14.192Z,6
2023-03-21T09:19:14.665Z,6
2023-03-21T09:20:14.782Z,6
2023-03-21T09:21:13.945Z,6
2023-03-21T09:22:14.304Z,5
2023-03-21T09:23:14.869Z,5
2023-03-21T09:24:13.886Z,5
2023-03-21T09:25:14.314Z,5
2023-03-21T09:26:14.203Z,5
2023-03-21T09:27:14.586Z,6
2023-03-21T09:28:14.769Z,6
2023-03-21T09:29:14.223Z,6
2023-03-21T09:30:14.420Z,6
2023-03-21T09:31:15.162Z,6
2023-03-21T09:32:14.122Z,3
2023-03-21T09:33:14.495Z,3
2023-03-21T09:34:14.625Z,3
2023-03-21T09:35:14.729Z,3
2023-03-21T09:36:14.647Z,3
2023-03-21T09:37:14.463Z,7
2023-03-21T09:38:14.681Z,7
2023-03-21T09:39:14.990Z,7
2023-03-21T09:40:14.234Z,7
2023-03-21T09:41:14.762Z,7
2023-03-21T09:42:15.974Z,7
2023-03-21T09:43:14.146Z,7
2023-03-21T09:44:14.332Z,7
2023-03-21T09:45:14.713Z,7
2023-03-21T09:46:14.621Z,7
2023-03-21T09:47:14.842Z,5
2023-03-21T09:48:17.017Z,5
2023-03-21T09:49:14.306Z,5
2023-03-21T09:50:22.824Z,5
2023-03-21T09:51:14.880Z,5
2023-03-21T09:52:14.492Z,3
2023-03-21T09:53:14.615Z,3
2023-03-21T09:54:14.993Z,3
2023-03-21T09:55:14.213Z,3
2023-03-21T09:56:14.370Z,3
2023-03-21T09:57:14.624Z,7
2023-03-21T09:58:14.857Z,7
2023-03-21T09:59:14.055Z,7
2023-03-21T10:00:14.483Z,7
2023-03-21T10:01:14.131Z,7
2023-03-21T10:02:14.419Z,4
2023-03-21T10:03:14.701Z,4
2023-03-21T10:04:14.161Z,4
2023-03-21T10:05:14.309Z,4
2023-03-21T10:06:14.811Z,4
2023-03-21T10:07:15.050Z,5
2023-03-21T10:08:14.106Z,5
2023-03-21T10:09:14.281Z,5
2023-03-21T10:10:14.549Z,5
2023-03-21T10:11:14.545Z,5
2023-03-21T10:12:14.666Z,7
2023-03-21T10:13:14.025Z,7
2023-03-21T10:14:14.338Z,7
2023-03-21T10:15:14.207Z,7
2023-03-21T10:16:14.525Z,7
2023-03-21T10:17:14.301Z,5
2023-03-21T10:18:14.812Z,5
2023-03-21T10:19:14.879Z,5
2023-03-21T10:20:16.503Z,5
2023-03-21T10:21:15.001Z,5
2023-03-21T10:22:14.471Z,6
2023-03-21T10:23:14.760Z,6
2023-03-21T10:24:14.153Z,6
2023-03-21T10:25:14.393Z,6
2023-03-21T10:26:21.372Z,6
2023-03-21T10:27:15.112Z,6
2023-03-21T10:28:14.446Z,6
2023-03-21T10:29:14.776Z,6
2023-03-21T10:30:14.839Z,6
2023-03-21T10:31:14.201Z,6
2023-03-21T10:32:14.777Z,12
2023-03-21T10:33:15.018Z,12
2023-03-21T10:34:14.071Z,12
2023-03-21T10:35:16.913Z,12
2023-03-21T10:36:14.743Z,12
2023-03-21T10:37:13.921Z,5
2023-03-21T10:38:14.252Z,5
2023-03-21T10:39:14.523Z,5
2023-03-21T10:40:14.606Z,5
2023-03-21T10:41:14.951Z,5
2023-03-21T10:42:14.194Z,4
2023-03-21T10:43:14.514Z,4
2023-03-21T10:44:14.678Z,4
2023-03-21T10:45:14.957Z,4
2023-03-21T10:46:15.047Z,4
2023-03-21T10:47:15.967Z,6
2023-03-21T10:48:15.830Z,6
2023-03-21T10:49:14.702Z,6
2023-03-21T10:50:17.845Z,6
2023-03-21T10:51:14.223Z,6
2023-03-21T10:52:14.739Z,7
2023-03-21T10:53:14.851Z,7
2023-03-21T10:54:14.119Z,7
2023-03-21T10:55:14.355Z,7
2023-03-21T10:56:13.922Z,7
2023-03-21T10:57:14.461Z,13
2023-03-21T10:58:15.330Z,13
2023-03-21T10:59:14.249Z,13
2023-03-21T11:00:14.526Z,13
2023-03-21T11:01:15.085Z,13
2023-03-21T11:02:15.023Z,8
2023-03-21T11:03:14.133Z,8
2023-03-21T11:04:14.472Z,8
2023-03-21T11:05:14.690Z,8
2023-03-21T11:06:14.849Z,8
2023-03-21T11:07:14.048Z,6
2023-03-21T11:08:14.328Z,6
2023-03-21T11:09:14.427Z,6
2023-03-21T11:10:30.852Z,6
2023-03-21T11:11:15.009Z,6
2023-03-21T11:12:14.170Z,6
2023-03-21T11:13:14.368Z,6
2023-03-21T11:14:14.655Z,6
2023-03-21T11:15:14.796Z,6
2023-03-21T11:16:14.218Z,6
2023-03-21T11:17:14.703Z,11
2023-03-21T11:18:14.843Z,11
2023-03-21T11:19:14.057Z,11
2023-03-21T11:20:14.401Z,11
2023-03-21T11:21:14.650Z,11
2023-03-21T11:22:14.815Z,4
2023-03-21T11:23:14.326Z,4
2023-03-21T11:24:16.009Z,4
2023-03-21T11:25:14.730Z,4
2023-03-21T11:26:14.771Z,4
2023-03-21T11:27:14.214Z,5
2023-03-21T11:28:14.418Z,5
2023-03-21T11:29:14.649Z,5
2023-03-21T11:30:14.884Z,5
2023-03-21T11:31:14.319Z,5
2023-03-21T11:32:14.625Z,12
2023-03-21T11:33:14.869Z,12
2023-03-21T11:34:14.236Z,12
2023-03-21T11:35:14.455Z,12
2023-03-21T11:36:14.158Z,12
2023-03-21T11:37:14.072Z,6
2023-03-21T11:38:14.765Z,6
2023-03-21T11:39:14.585Z,6
2023-03-21T11:40:14.150Z,6
2023-03-21T11:41:14.948Z,6
2023-03-21T11:42:14.206Z,4
2023-03-21T11:43:14.553Z,4
2023-03-21T11:44:14.905Z,4
2023-03-21T11:45:14.104Z,4
2023-03-21T11:46:14.938Z,4
2023-03-21T11:47:14.147Z,3
2023-03-21T11:48:14.964Z,3
2023-03-21T11:49:14.564Z,3
2023-03-21T11:50:15.143Z,3
2023-03-21T11:51:14.225Z,3
2023-03-21T11:52:14.467Z,5
2023-03-21T11:53:14.492Z,5
2023-03-21T11:54:14.069Z,5
2023-03-21T11:55:14.302Z,5
2023-03-21T11:56:14.488Z,5
2023-03-21T11:57:14.795Z,13
2023-03-21T11:58:22.965Z,13
2023-03-21T11:59:14.811Z,13
2023-03-21T12:00:14.775Z,13
2023-03-21T12:01:14.353Z,13
2023-03-21T12:02:14.930Z,13
2023-03-21T12:03:14.883Z,13
2023-03-21T12:04:14.208Z,13
2023-03-21T12:05:14.109Z,13
2023-03-21T12:06:14.683Z,13
2023-03-21T12:07:14.947Z,6
2023-03-21T12:08:14.026Z,6
2023-03-21T12:09:14.409Z,6
2023-03-21T12:10:14.744Z,6
2023-03-21T12:11:15.126Z,6
2023-03-21T12:12:14.023Z,12
2023-03-21T12:13:14.433Z,12
2023-03-21T12:14:14.640Z,12
2023-03-21T12:15:14.708Z,12
2023-03-21T12:16:15.116Z,12
2023-03-21T12:17:14.153Z,4
2023-03-21T12:18:14.476Z,4
2023-03-21T12:19:14.643Z,4
2023-03-21T12:20:15.275Z,4
2023-03-21T12:21:14.089Z,4
2023-03-21T12:22:14.238Z,3
2023-03-21T12:23:14.773Z,3
2023-03-21T12:24:14.932Z,3
2023-03-21T12:25:14.779Z,3
2023-03-21T12:26:14.281Z,3
2023-03-21T12:27:14.165Z,4
2023-03-21T12:28:19.033Z,4
2023-03-21T12:29:14.862Z,4
2023-03-21T12:30:14.361Z,4
2023-03-21T12:31:14.663Z,4
2023-03-21T12:32:14.639Z,3
2023-03-21T12:33:14.816Z,3
2023-03-21T12:34:14.496Z,3
2023-03-21T12:35:14.601Z,3
2023-03-21T12:36:14.998Z,3
2023-03-21T12:37:14.108Z,15
2023-03-21T12:38:14.530Z,15
2023-03-21T12:39:14.778Z,15
2023-03-21T12:40:13.963Z,15
2023-03-21T12:41:14.630Z,15
2023-03-21T12:42:14.456Z,7
2023-03-21T12:43:14.687Z,7
2023-03-21T12:44:15.030Z,7
2023-03-21T12:45:22.156Z,7
2023-03-21T12:46:14.476Z,7
2023-03-21T12:47:15.129Z,5
2023-03-21T12:48:14.221Z,5
2023-03-21T12:49:14.435Z,5
2023-03-21T12:50:14.920Z,5
2023-03-21T12:51:14.149Z,5
2023-03-21T12:52:14.115Z,5
2023-03-21T12:53:14.369Z,5
2023-03-21T12:54:15.048Z,5
2023-03-21T12:55:14.312Z,5
2023-03-21T12:56:14.402Z,5
2023-03-21T12:57:14.598Z,7
2023-03-21T12:58:14.576Z,7
2023-03-21T12:59:13.961Z,7
2023-03-21T13:00:14.603Z,7
2023-03-21T13:01:14.584Z,7
2023-03-21T13:02:14.344Z,4
2023-03-21T13:03:14.844Z,4
2023-03-21T13:04:14.946Z,4
2023-03-21T13:05:13.842Z,4
2023-03-21T13:06:14.886Z,4
2023-03-21T13:07:14.610Z,8
2023-03-21T13:08:14.201Z,8
2023-03-21T13:09:13.993Z,8
2023-03-21T13:10:14.428Z,8
2023-03-21T13:11:14.840Z,8
2023-03-21T13:12:14.184Z,4
2023-03-21T13:13:14.422Z,4
2023-03-21T13:14:14.773Z,4
2023-03-21T13:15:28.766Z,4
2023-03-21T13:16:14.598Z,4
2023-03-21T13:17:14.084Z,3
2023-03-21T13:18:14.648Z,3
2023-03-21T13:19:15.070Z,3
2023-03-21T13:20:14.073Z,3
2023-03-21T13:21:14.052Z,3
2023-03-21T13:22:14.866Z,7
2023-03-21T13:23:14.771Z,7
2023-03-21T13:24:14.046Z,7
2023-03-21T13:25:14.624Z,7
2023-03-21T13:26:14.161Z,7
2023-03-21T13:27:14.883Z,8
2023-03-21T13:28:14.197Z,8
2023-03-21T13:29:14.555Z,8
2023-03-21T13:30:15.431Z,8
2023-03-21T13:31:14.206Z,8
2023-03-21T13:32:15.046Z,13
2023-03-21T13:33:14.968Z,13
2023-03-21T13:34:14.863Z,13
2023-03-21T13:35:13.908Z,13
2023-03-21T13:36:14.340Z,13
2023-03-21T13:37:14.543Z,5
2023-03-21T13:38:15.293Z,5
2023-03-21T13:39:14.162Z,5
2023-03-21T13:40:14.465Z,5
2023-03-21T13:41:14.398Z,5
2023-03-21T13:42:14.488Z,12
2023-03-21T13:43:29.075Z,12
2023-03-21T13:44:14.191Z,12
2023-03-21T13:45:14.383Z,12
2023-03-21T13:46:14.448Z,12
2023-03-21T13:47:14.673Z,11
2023-03-21T13:48:15.071Z,11
2023-03-21T13:49:15.241Z,11
2023-03-21T13:50:14.165Z,11
2023-03-21T13:51:14.174Z,11
2023-03-21T13:52:14.565Z,7
2023-03-21T13:53:14.141Z,7
2023-03-21T13:54:14.744Z,7
2023-03-21T13:55:14.771Z,7
2023-03-21T13:56:14.026Z,7
2023-03-21T13:57:14.377Z,4
2023-03-21T13:58:14.891Z,4
2023-03-21T13:59:14.129Z,4
2023-03-21T14:00:14.424Z,4
2023-03-21T14:01:15.015Z,4
2023-03-21T14:02:14.789Z,6
2023-03-21T14:03:13.873Z,6
2023-03-21T14:04:14.331Z,6
2023-03-21T14:05:15.945Z,6
2023-03-21T14:06:15.033Z,6
2023-03-21T14:07:14.789Z,4
2023-03-21T14:08:41.275Z,4
2023-03-21T14:09:14.439Z,4
2023-03-21T14:10:15.332Z,4
2023-03-21T14:11:14.266Z,4
2023-03-21T14:12:16.328Z,4
2023-03-21T14:13:14.668Z,4
2023-03-21T14:14:14.252Z,4
2023-03-21T14:15:24.445Z,4
2023-03-21T14:16:15.120Z,4
2023-03-21T14:17:13.949Z,9
2023-03-21T14:18:58.245Z,9
2023-03-21T14:19:14.080Z,9
2023-03-21T14:20:16.199Z,9
2023-03-21T14:21:27.998Z,9
2023-03-21T14:22:14.215Z,12
2023-03-21T14:23:14.245Z,12
2023-03-21T14:24:14.432Z,12
2023-03-21T14:25:14.049Z,12
2023-03-21T14:26:14.433Z,12
2023-03-21T14:27:14.635Z,13
2023-03-21T14:28:14.579Z,13
2023-03-21T14:29:34.032Z,13
2023-03-21T14:30:14.075Z,13
2023-03-21T14:31:14.465Z,13
2023-03-21T14:32:14.636Z,3
2023-03-21T14:33:14.401Z,3
2023-03-21T14:34:14.594Z,3
2023-03-21T14:35:14.722Z,3
2023-03-21T14:36:14.206Z,3
2023-03-21T14:37:14.183Z,13
2023-03-21T14:38:14.529Z,13
2023-03-21T14:39:14.971Z,13
2023-03-21T14:40:13.885Z,13
2023-03-21T14:41:14.432Z,13
2023-03-21T14:42:15.142Z,6
2023-03-21T14:43:13.905Z,6
2023-03-21T14:44:14.433Z,6
2023-03-21T14:45:14.555Z,6
2023-03-21T14:46:14.228Z,6
2023-03-21T14:47:14.183Z,12
2023-03-21T14:48:15.039Z,12
2023-03-21T14:49:14.495Z,12
2023-03-21T14:50:14.973Z,12
2023-03-21T14:51:15.025Z,12
2023-03-21T14:52:15.202Z,12
2023-03-21T14:53:14.574Z,12
2023-03-21T14:54:14.457Z,12
2023-03-21T14:55:15.143Z,12
2023-03-21T14:56:14.238Z,12
2023-03-21T14:57:14.316Z,12
2023-03-21T14:58:15.384Z,12
2023-03-21T14:59:15.011Z,12
2023-03-21T15:00:14.074Z,12
2023-03-21T15:01:14.518Z,12
2023-03-21T15:02:14.597Z,8
2023-03-21T15:03:15.068Z,8
2023-03-21T15:04:14.127Z,8
2023-03-21T15:05:14.925Z,8
2023-03-21T15:06:14.231Z,8
2023-03-21T15:07:14.711Z,7
2023-03-21T15:08:13.921Z,7
2023-03-21T15:09:17.335Z,7
2023-03-21T15:10:14.790Z,7
2023-03-21T15:11:16.459Z,7
2023-03-21T15:12:14.260Z,3
2023-03-21T15:13:14.537Z,3
2023-03-21T15:14:15.072Z,3
2023-03-21T15:15:14.988Z,3
2023-03-21T15:16:14.562Z,3
2023-03-21T15:17:14.343Z,9
2023-03-21T15:18:14.537Z,9
2023-03-21T15:19:14.524Z,9
2023-03-21T15:20:14.955Z,9
2023-03-21T15:21:14.940Z,9
2023-03-21T15:22:14.784Z,13
2023-03-21T15:23:14.562Z,13
2023-03-21T15:24:14.912Z,13
2023-03-21T15:25:14.045Z,13
2023-03-21T15:26:14.426Z,13
2023-03-21T15:27:14.657Z,7